sensor_id;sensor_type;location;lat;lon;timestamp;P1;durP1;ratioP1;P2;durP2;ratioP2
61104;SDS011;46987;32.638;-115.438;2023-07-31T00:00:15;8.30;;;2.00;;
61104;SDS011;46987;32.638;-115.438;2023-07-31T00:02:42;9.82;;;2.22;;
61104;SDS011;46987;32.638;-115.438;2023-07-31T00:05:09;8.38;;;2.55;;
61104;SDS011;46987;32.638;-115.438;2023-07-31T00:07:36;11.00;;;3.50;;
61104;SDS011;46987;32.638;-115.438;2023-07-31T00:10:03;10.60;;;2.10;;
61104;SDS011;46987;32.638;-115.438;2023-07-31T00:12:31;8.93;;;2.40;;
61104;SDS011;46987;32.638;-115.438;2023-07-31T00:14:59;6.40;;;2.67;;
61104;SDS011;46987;32.638;-115.438;2023-07-31T00:17:25;7.47;;;2.20;;
61104;SDS011;46987;32.638;-115.438;2023-07-31T00:19:52;6.05;;;1.70;;
61104;SDS011;46987;32.638;-115.438;2023-07-31T00:22:19;7.10;;;1.98;;
61104;SDS011;46987;32.638;-115.438;2023-07-31T00:24:45;6.55;;;2.15;;
61104;SDS011;46987;32.638;-115.438;2023-07-31T00:27:12;6.70;;;1.92;;
61104;SDS011;46987;32.638;-115.438;2023-07-31T00:29:40;6.35;;;1.63;;
61104;SDS011;46987;32.638;-115.438;2023-07-31T00:32:07;5.53;;;1.83;;
61104;SDS011;46987;32.638;-115.438;2023-07-31T00:34:37;7.30;;;2.05;;
61104;SDS011;46987;32.638;-115.438;2023-07-31T00:37:04;7.63;;;2.00;;
61104;SDS011;46987;32.638;-115.438;2023-07-31T00:39:31;10.13;;;1.95;;
61104;SDS011;46987;32.638;-115.438;2023-07-31T00:41:59;7.80;;;2.22;;
61104;SDS011;46987;32.638;-115.438;2023-07-31T00:44:26;5.32;;;1.70;;
61104;SDS011;46987;32.638;-115.438;2023-07-31T00:46:54;10.13;;;2.33;;
61104;SDS011;46987;32.638;-115.438;2023-07-31T00:49:22;6.10;;;1.60;;
61104;SDS011;46987;32.638;-115.438;2023-07-31T00:51:49;7.07;;;1.90;;
61104;SDS011;46987;32.638;-115.438;2023-07-31T00:54:15;6.78;;;1.85;;
61104;SDS011;46987;32.638;-115.438;2023-07-31T00:56:42;5.93;;;2.10;;
61104;SDS011;46987;32.638;-115.438;2023-07-31T00:59:10;7.40;;;2.03;;
61104;SDS011;46987;32.638;-115.438;2023-07-31T01:01:37;7.20;;;1.67;;
61104;SDS011;46987;32.638;-115.438;2023-07-31T01:04:05;9.02;;;2.15;;
61104;SDS011;46987;32.638;-115.438;2023-07-31T01:06:33;7.60;;;1.92;;
61104;SDS011;46987;32.638;-115.438;2023-07-31T01:09:03;7.43;;;2.03;;
61104;SDS011;46987;32.638;-115.438;2023-07-31T01:11:30;7.05;;;2.20;;
61104;SDS011;46987;32.638;-115.438;2023-07-31T01:13:57;5.70;;;2.40;;
61104;SDS011;46987;32.638;-115.438;2023-07-31T01:16:25;7.63;;;2.05;;
61104;SDS011;46987;32.638;-115.438;2023-07-31T01:18:54;7.75;;;1.88;;
61104;SDS011;46987;32.638;-115.438;2023-07-31T01:21:27;8.43;;;1.92;;
61104;SDS011;46987;32.638;-115.438;2023-07-31T01:26:47;10.27;;;2.45;;
61104;SDS011;46987;32.638;-115.438;2023-07-31T01:29:16;7.28;;;2.03;;
61104;SDS011;46987;32.638;-115.438;2023-07-31T01:31:44;10.15;;;2.50;;
61104;SDS011;46987;32.638;-115.438;2023-07-31T01:34:14;5.75;;;2.28;;
61104;SDS011;46987;32.638;-115.438;2023-07-31T01:36:44;7.38;;;2.40;;
61104;SDS011;46987;32.638;-115.438;2023-07-31T01:39:11;6.15;;;1.90;;
61104;SDS011;46987;32.638;-115.438;2023-07-31T01:41:37;5.55;;;1.98;;
61104;SDS011;46987;32.638;-115.438;2023-07-31T01:44:07;11.05;;;2.45;;
61104;SDS011;46987;32.638;-115.438;2023-07-31T01:46:34;5.90;;;2.47;;
61104;SDS011;46987;32.638;-115.438;2023-07-31T01:49:02;6.03;;;1.98;;
61104;SDS011;46987;32.638;-115.438;2023-07-31T01:51:29;6.47;;;2.08;;
61104;SDS011;46987;32.638;-115.438;2023-07-31T01:53:56;5.13;;;1.80;;
61104;SDS011;46987;32.638;-115.438;2023-07-31T01:56:22;7.68;;;2.30;;
61104;SDS011;46987;32.638;-115.438;2023-07-31T01:58:49;10.68;;;2.50;;
61104;SDS011;46987;32.638;-115.438;2023-07-31T02:01:17;8.35;;;2.45;;
61104;SDS011;46987;32.638;-115.438;2023-07-31T02:03:45;21.30;;;2.85;;
61104;SDS011;46987;32.638;-115.438;2023-07-31T02:06:11;14.40;;;2.13;;
61104;SDS011;46987;32.638;-115.438;2023-07-31T02:08:38;8.05;;;2.25;;
61104;SDS011;46987;32.638;-115.438;2023-07-31T02:11:05;7.95;;;2.50;;
61104;SDS011;46987;32.638;-115.438;2023-07-31T02:13:32;6.22;;;1.92;;
61104;SDS011;46987;32.638;-115.438;2023-07-31T02:15:58;6.35;;;1.80;;
61104;SDS011;46987;32.638;-115.438;2023-07-31T02:18:27;9.73;;;2.88;;
61104;SDS011;46987;32.638;-115.438;2023-07-31T02:20:53;10.27;;;3.00;;
61104;SDS011;46987;32.638;-115.438;2023-07-31T02:23:20;10.27;;;2.88;;
61104;SDS011;46987;32.638;-115.438;2023-07-31T02:25:47;20.42;;;5.07;;
61104;SDS011;46987;32.638;-115.438;2023-07-31T02:28:14;28.58;;;7.25;;
61104;SDS011;46987;32.638;-115.438;2023-07-31T02:30:43;26.02;;;7.95;;
61104;SDS011;46987;32.638;-115.438;2023-07-31T02:33:10;32.33;;;8.38;;
61104;SDS011;46987;32.638;-115.438;2023-07-31T02:35:39;46.45;;;12.27;;
61104;SDS011;46987;32.638;-115.438;2023-07-31T02:38:06;46.20;;;10.85;;
61104;SDS011;46987;32.638;-115.438;2023-07-31T02:40:32;23.45;;;6.93;;
61104;SDS011;46987;32.638;-115.438;2023-07-31T02:42:59;14.13;;;3.45;;
61104;SDS011;46987;32.638;-115.438;2023-07-31T02:45:26;13.60;;;3.75;;
61104;SDS011;46987;32.638;-115.438;2023-07-31T02:47:53;13.07;;;3.22;;
61104;SDS011;46987;32.638;-115.438;2023-07-31T02:50:22;11.57;;;2.60;;
61104;SDS011;46987;32.638;-115.438;2023-07-31T02:52:51;10.63;;;3.13;;
61104;SDS011;46987;32.638;-115.438;2023-07-31T02:55:17;11.85;;;2.85;;
61104;SDS011;46987;32.638;-115.438;2023-07-31T02:57:44;10.38;;;2.47;;
61104;SDS011;46987;32.638;-115.438;2023-07-31T03:00:11;12.20;;;2.88;;
61104;SDS011;46987;32.638;-115.438;2023-07-31T03:02:38;15.45;;;3.08;;
61104;SDS011;46987;32.638;-115.438;2023-07-31T03:05:04;12.55;;;2.83;;
61104;SDS011;46987;32.638;-115.438;2023-07-31T03:07:31;18.58;;;3.10;;
61104;SDS011;46987;32.638;-115.438;2023-07-31T03:09:59;13.13;;;3.58;;
61104;SDS011;46987;32.638;-115.438;2023-07-31T03:12:27;8.82;;;2.80;;
61104;SDS011;46987;32.638;-115.438;2023-07-31T03:14:53;10.18;;;2.65;;
61104;SDS011;46987;32.638;-115.438;2023-07-31T03:17:20;11.25;;;2.63;;
61104;SDS011;46987;32.638;-115.438;2023-07-31T03:19:47;12.88;;;2.50;;
61104;SDS011;46987;32.638;-115.438;2023-07-31T03:22:14;9.20;;;2.85;;
61104;SDS011;46987;32.638;-115.438;2023-07-31T03:24:40;11.65;;;3.08;;
61104;SDS011;46987;32.638;-115.438;2023-07-31T03:27:09;10.45;;;2.17;;
61104;SDS011;46987;32.638;-115.438;2023-07-31T03:29:35;13.48;;;3.13;;
61104;SDS011;46987;32.638;-115.438;2023-07-31T03:32:03;10.45;;;2.50;;
61104;SDS011;46987;32.638;-115.438;2023-07-31T03:34:30;16.55;;;3.42;;
61104;SDS011;46987;32.638;-115.438;2023-07-31T03:36:58;10.68;;;2.67;;
61104;SDS011;46987;32.638;-115.438;2023-07-31T03:39:25;11.32;;;2.45;;
61104;SDS011;46987;32.638;-115.438;2023-07-31T03:41:51;10.75;;;2.03;;
61104;SDS011;46987;32.638;-115.438;2023-07-31T03:44:20;11.55;;;2.72;;
61104;SDS011;46987;32.638;-115.438;2023-07-31T03:46:47;8.15;;;2.63;;
61104;SDS011;46987;32.638;-115.438;2023-07-31T03:49:13;7.45;;;2.42;;
61104;SDS011;46987;32.638;-115.438;2023-07-31T03:51:40;8.38;;;1.88;;
61104;SDS011;46987;32.638;-115.438;2023-07-31T03:54:07;10.18;;;2.47;;
61104;SDS011;46987;32.638;-115.438;2023-07-31T03:56:34;11.13;;;3.17;;
61104;SDS011;46987;32.638;-115.438;2023-07-31T03:59:01;12.55;;;2.90;;
61104;SDS011;46987;32.638;-115.438;2023-07-31T04:01:30;14.27;;;3.25;;
61104;SDS011;46987;32.638;-115.438;2023-07-31T04:03:57;8.45;;;2.80;;
61104;SDS011;46987;32.638;-115.438;2023-07-31T04:06:23;14.30;;;3.88;;
61104;SDS011;46987;32.638;-115.438;2023-07-31T04:08:50;12.43;;;3.28;;
61104;SDS011;46987;32.638;-115.438;2023-07-31T04:11:17;11.45;;;3.40;;
61104;SDS011;46987;32.638;-115.438;2023-07-31T04:13:43;11.45;;;4.22;;
61104;SDS011;46987;32.638;-115.438;2023-07-31T04:16:10;17.10;;;3.80;;
61104;SDS011;46987;32.638;-115.438;2023-07-31T04:18:39;16.80;;;3.95;;
61104;SDS011;46987;32.638;-115.438;2023-07-31T04:21:05;13.35;;;3.45;;
61104;SDS011;46987;32.638;-115.438;2023-07-31T04:23:32;15.10;;;3.70;;
61104;SDS011;46987;32.638;-115.438;2023-07-31T04:25:59;10.93;;;3.50;;
61104;SDS011;46987;32.638;-115.438;2023-07-31T04:28:25;13.18;;;3.78;;
61104;SDS011;46987;32.638;-115.438;2023-07-31T04:30:52;14.63;;;4.07;;
61104;SDS011;46987;32.638;-115.438;2023-07-31T04:33:19;15.50;;;4.70;;
61104;SDS011;46987;32.638;-115.438;2023-07-31T04:35:50;17.25;;;5.05;;
61104;SDS011;46987;32.638;-115.438;2023-07-31T04:38:18;17.55;;;4.85;;
61104;SDS011;46987;32.638;-115.438;2023-07-31T04:40:45;13.55;;;4.05;;
61104;SDS011;46987;32.638;-115.438;2023-07-31T04:43:12;14.55;;;4.07;;
61104;SDS011;46987;32.638;-115.438;2023-07-31T04:45:39;15.40;;;3.70;;
61104;SDS011;46987;32.638;-115.438;2023-07-31T04:48:06;16.70;;;3.53;;
61104;SDS011;46987;32.638;-115.438;2023-07-31T04:50:32;14.23;;;3.22;;
61104;SDS011;46987;32.638;-115.438;2023-07-31T04:53:01;11.90;;;3.20;;
61104;SDS011;46987;32.638;-115.438;2023-07-31T04:55:27;16.60;;;3.47;;
61104;SDS011;46987;32.638;-115.438;2023-07-31T04:57:54;14.65;;;3.05;;
61104;SDS011;46987;32.638;-115.438;2023-07-31T05:00:21;16.85;;;3.83;;
61104;SDS011;46987;32.638;-115.438;2023-07-31T05:02:48;16.58;;;3.78;;
61104;SDS011;46987;32.638;-115.438;2023-07-31T05:05:16;16.20;;;3.85;;
61104;SDS011;46987;32.638;-115.438;2023-07-31T05:07:43;20.35;;;3.65;;
61104;SDS011;46987;32.638;-115.438;2023-07-31T05:10:11;14.13;;;3.65;;
61104;SDS011;46987;32.638;-115.438;2023-07-31T05:12:38;15.75;;;3.35;;
61104;SDS011;46987;32.638;-115.438;2023-07-31T05:15:05;16.10;;;3.40;;
61104;SDS011;46987;32.638;-115.438;2023-07-31T05:17:32;13.50;;;2.97;;
61104;SDS011;46987;32.638;-115.438;2023-07-31T05:19:58;11.32;;;3.13;;
61104;SDS011;46987;32.638;-115.438;2023-07-31T05:22:25;10.10;;;2.80;;
61104;SDS011;46987;32.638;-115.438;2023-07-31T05:24:52;14.43;;;4.38;;
61104;SDS011;46987;32.638;-115.438;2023-07-31T05:27:23;15.50;;;4.75;;
61104;SDS011;46987;32.638;-115.438;2023-07-31T05:29:50;11.57;;;4.03;;
61104;SDS011;46987;32.638;-115.438;2023-07-31T05:32:17;13.27;;;4.38;;
61104;SDS011;46987;32.638;-115.438;2023-07-31T05:34:44;12.35;;;4.55;;
61104;SDS011;46987;32.638;-115.438;2023-07-31T05:37:10;15.48;;;4.72;;
61104;SDS011;46987;32.638;-115.438;2023-07-31T05:39:38;15.75;;;5.10;;
61104;SDS011;46987;32.638;-115.438;2023-07-31T05:42:05;15.88;;;4.32;;
61104;SDS011;46987;32.638;-115.438;2023-07-31T05:44:34;8.95;;;4.10;;
61104;SDS011;46987;32.638;-115.438;2023-07-31T05:47:00;16.30;;;4.65;;
61104;SDS011;46987;32.638;-115.438;2023-07-31T05:49:28;12.80;;;4.45;;
61104;SDS011;46987;32.638;-115.438;2023-07-31T05:51:54;16.00;;;4.55;;
61104;SDS011;46987;32.638;-115.438;2023-07-31T05:54:22;13.88;;;4.20;;
61104;SDS011;46987;32.638;-115.438;2023-07-31T05:56:48;15.18;;;4.90;;
61104;SDS011;46987;32.638;-115.438;2023-07-31T05:59:15;13.32;;;3.83;;
61104;SDS011;46987;32.638;-115.438;2023-07-31T06:01:47;12.63;;;4.95;;
61104;SDS011;46987;32.638;-115.438;2023-07-31T06:04:14;13.20;;;4.20;;
61104;SDS011;46987;32.638;-115.438;2023-07-31T06:06:41;11.98;;;3.78;;
61104;SDS011;46987;32.638;-115.438;2023-07-31T06:09:07;9.50;;;3.92;;
61104;SDS011;46987;32.638;-115.438;2023-07-31T06:11:34;12.27;;;4.25;;
61104;SDS011;46987;32.638;-115.438;2023-07-31T06:14:01;14.07;;;4.28;;
61104;SDS011;46987;32.638;-115.438;2023-07-31T06:16:28;12.00;;;3.72;;
61104;SDS011;46987;32.638;-115.438;2023-07-31T06:18:56;8.77;;;3.25;;
61104;SDS011;46987;32.638;-115.438;2023-07-31T06:21:23;10.25;;;3.63;;
61104;SDS011;46987;32.638;-115.438;2023-07-31T06:23:50;11.23;;;2.65;;
61104;SDS011;46987;32.638;-115.438;2023-07-31T06:26:17;8.27;;;2.47;;
61104;SDS011;46987;32.638;-115.438;2023-07-31T06:28:43;12.52;;;2.90;;
61104;SDS011;46987;32.638;-115.438;2023-07-31T06:31:10;9.52;;;2.47;;
61104;SDS011;46987;32.638;-115.438;2023-07-31T06:33:37;11.25;;;3.10;;
61104;SDS011;46987;32.638;-115.438;2023-07-31T06:36:05;11.60;;;2.80;;
61104;SDS011;46987;32.638;-115.438;2023-07-31T06:38:32;8.57;;;2.83;;
61104;SDS011;46987;32.638;-115.438;2023-07-31T06:40:58;10.13;;;2.45;;
61104;SDS011;46987;32.638;-115.438;2023-07-31T06:43:25;7.85;;;2.60;;
61104;SDS011;46987;32.638;-115.438;2023-07-31T06:45:56;10.13;;;2.97;;
61104;SDS011;46987;32.638;-115.438;2023-07-31T06:48:23;8.35;;;2.80;;
61104;SDS011;46987;32.638;-115.438;2023-07-31T06:50:50;7.63;;;2.35;;
61104;SDS011;46987;32.638;-115.438;2023-07-31T06:53:20;10.68;;;2.88;;
61104;SDS011;46987;32.638;-115.438;2023-07-31T06:55:53;9.43;;;2.38;;
61104;SDS011;46987;32.638;-115.438;2023-07-31T06:58:20;7.10;;;2.10;;
61104;SDS011;46987;32.638;-115.438;2023-07-31T07:00:47;9.50;;;2.83;;
61104;SDS011;46987;32.638;-115.438;2023-07-31T07:03:16;7.70;;;2.72;;
61104;SDS011;46987;32.638;-115.438;2023-07-31T07:05:45;10.38;;;2.70;;
61104;SDS011;46987;32.638;-115.438;2023-07-31T07:08:12;10.05;;;2.65;;
61104;SDS011;46987;32.638;-115.438;2023-07-31T07:10:44;8.90;;;2.25;;
61104;SDS011;46987;32.638;-115.438;2023-07-31T07:13:13;10.52;;;2.42;;
61104;SDS011;46987;32.638;-115.438;2023-07-31T07:15:47;10.80;;;2.40;;
61104;SDS011;46987;32.638;-115.438;2023-07-31T07:18:18;10.90;;;2.28;;
61104;SDS011;46987;32.638;-115.438;2023-07-31T07:20:47;8.68;;;2.50;;
61104;SDS011;46987;32.638;-115.438;2023-07-31T07:23:14;10.25;;;2.42;;
61104;SDS011;46987;32.638;-115.438;2023-07-31T07:25:41;9.88;;;2.67;;
61104;SDS011;46987;32.638;-115.438;2023-07-31T07:28:09;8.63;;;1.80;;
61104;SDS011;46987;32.638;-115.438;2023-07-31T07:30:36;9.73;;;2.60;;
61104;SDS011;46987;32.638;-115.438;2023-07-31T07:33:03;5.93;;;1.88;;
61104;SDS011;46987;32.638;-115.438;2023-07-31T07:35:30;6.78;;;2.13;;
61104;SDS011;46987;32.638;-115.438;2023-07-31T07:37:57;7.03;;;1.75;;
61104;SDS011;46987;32.638;-115.438;2023-07-31T07:40:23;8.13;;;1.95;;
61104;SDS011;46987;32.638;-115.438;2023-07-31T07:42:50;9.25;;;1.98;;
61104;SDS011;46987;32.638;-115.438;2023-07-31T07:45:18;10.02;;;2.30;;
61104;SDS011;46987;32.638;-115.438;2023-07-31T07:47:45;6.72;;;1.55;;
61104;SDS011;46987;32.638;-115.438;2023-07-31T07:50:12;8.18;;;2.08;;
61104;SDS011;46987;32.638;-115.438;2023-07-31T07:52:39;9.02;;;1.80;;
61104;SDS011;46987;32.638;-115.438;2023-07-31T07:55:05;6.32;;;1.73;;
61104;SDS011;46987;32.638;-115.438;2023-07-31T07:57:32;7.38;;;2.00;;
61104;SDS011;46987;32.638;-115.438;2023-07-31T07:59:59;8.48;;;2.28;;
61104;SDS011;46987;32.638;-115.438;2023-07-31T08:02:27;7.07;;;1.70;;
61104;SDS011;46987;32.638;-115.438;2023-07-31T08:04:54;9.40;;;2.55;;
61104;SDS011;46987;32.638;-115.438;2023-07-31T08:07:21;11.23;;;2.83;;
61104;SDS011;46987;32.638;-115.438;2023-07-31T08:09:47;17.05;;;2.70;;
61104;SDS011;46987;32.638;-115.438;2023-07-31T08:12:14;38.67;;;4.72;;
61104;SDS011;46987;32.638;-115.438;2023-07-31T08:14:41;72.03;;;8.02;;
61104;SDS011;46987;32.638;-115.438;2023-07-31T08:17:07;83.38;;;8.13;;
61104;SDS011;46987;32.638;-115.438;2023-07-31T08:19:36;102.60;;;11.57;;
61104;SDS011;46987;32.638;-115.438;2023-07-31T08:22:03;97.85;;;11.00;;
61104;SDS011;46987;32.638;-115.438;2023-07-31T08:24:30;94.85;;;11.10;;
61104;SDS011;46987;32.638;-115.438;2023-07-31T08:26:56;104.07;;;11.55;;
61104;SDS011;46987;32.638;-115.438;2023-07-31T08:29:23;103.68;;;11.15;;
61104;SDS011;46987;32.638;-115.438;2023-07-31T08:31:51;120.90;;;12.80;;
61104;SDS011;46987;32.638;-115.438;2023-07-31T08:34:20;132.35;;;14.85;;
61104;SDS011;46987;32.638;-115.438;2023-07-31T08:36:49;121.53;;;12.85;;
61104;SDS011;46987;32.638;-115.438;2023-07-31T08:39:16;144.15;;;15.50;;
61104;SDS011;46987;32.638;-115.438;2023-07-31T08:41:43;103.55;;;13.02;;
61104;SDS011;46987;32.638;-115.438;2023-07-31T08:44:10;86.97;;;11.52;;
61104;SDS011;46987;32.638;-115.438;2023-07-31T08:46:37;74.53;;;10.40;;
61104;SDS011;46987;32.638;-115.438;2023-07-31T08:49:04;77.80;;;9.45;;
61104;SDS011;46987;32.638;-115.438;2023-07-31T08:51:33;76.95;;;10.05;;
61104;SDS011;46987;32.638;-115.438;2023-07-31T08:54:02;98.25;;;11.07;;
61104;SDS011;46987;32.638;-115.438;2023-07-31T08:56:31;116.28;;;13.05;;
61104;SDS011;46987;32.638;-115.438;2023-07-31T08:58:58;109.80;;;13.13;;
61104;SDS011;46987;32.638;-115.438;2023-07-31T09:01:26;135.18;;;16.05;;
61104;SDS011;46987;32.638;-115.438;2023-07-31T09:03:56;126.97;;;13.93;;
61104;SDS011;46987;32.638;-115.438;2023-07-31T09:06:24;186.98;;;22.05;;
61104;SDS011;46987;32.638;-115.438;2023-07-31T09:08:52;221.82;;;27.25;;
61104;SDS011;46987;32.638;-115.438;2023-07-31T09:11:20;141.55;;;17.77;;
61104;SDS011;46987;32.638;-115.438;2023-07-31T09:13:47;107.80;;;15.23;;
61104;SDS011;46987;32.638;-115.438;2023-07-31T09:16:15;89.43;;;13.60;;
61104;SDS011;46987;32.638;-115.438;2023-07-31T09:18:52;66.20;;;11.48;;
61104;SDS011;46987;32.638;-115.438;2023-07-31T09:21:20;54.90;;;9.80;;
61104;SDS011;46987;32.638;-115.438;2023-07-31T09:23:46;51.20;;;9.35;;
61104;SDS011;46987;32.638;-115.438;2023-07-31T09:28:58;60.58;;;11.23;;
61104;SDS011;46987;32.638;-115.438;2023-07-31T09:31:32;46.15;;;9.23;;
61104;SDS011;46987;32.638;-115.438;2023-07-31T09:33:59;56.25;;;11.10;;
61104;SDS011;46987;32.638;-115.438;2023-07-31T09:36:29;47.85;;;9.50;;
61104;SDS011;46987;32.638;-115.438;2023-07-31T09:38:58;47.85;;;9.60;;
61104;SDS011;46987;32.638;-115.438;2023-07-31T09:41:28;49.20;;;10.13;;
61104;SDS011;46987;32.638;-115.438;2023-07-31T09:43:54;45.72;;;10.45;;
61104;SDS011;46987;32.638;-115.438;2023-07-31T09:46:23;35.05;;;8.20;;
61104;SDS011;46987;32.638;-115.438;2023-07-31T09:48:53;32.05;;;6.10;;
61104;SDS011;46987;32.638;-115.438;2023-07-31T09:51:26;23.63;;;6.00;;
61104;SDS011;46987;32.638;-115.438;2023-07-31T09:53:53;15.32;;;3.95;;
61104;SDS011;46987;32.638;-115.438;2023-07-31T10:13:39;15.52;;;3.92;;
61104;SDS011;46987;32.638;-115.438;2023-07-31T10:16:08;9.85;;;2.33;;
61104;SDS011;46987;32.638;-115.438;2023-07-31T10:18:35;9.73;;;2.40;;
61104;SDS011;46987;32.638;-115.438;2023-07-31T10:34:01;11.05;;;2.70;;
61104;SDS011;46987;32.638;-115.438;2023-07-31T10:36:29;10.70;;;2.20;;
61104;SDS011;46987;32.638;-115.438;2023-07-31T10:38:56;10.38;;;2.47;;
61104;SDS011;46987;32.638;-115.438;2023-07-31T10:41:28;8.80;;;2.70;;
61104;SDS011;46987;32.638;-115.438;2023-07-31T10:43:56;7.87;;;2.40;;
61104;SDS011;46987;32.638;-115.438;2023-07-31T10:46:23;9.10;;;2.25;;
61104;SDS011;46987;32.638;-115.438;2023-07-31T10:48:51;12.10;;;2.20;;
61104;SDS011;46987;32.638;-115.438;2023-07-31T10:51:26;8.45;;;2.53;;
61104;SDS011;46987;32.638;-115.438;2023-07-31T10:54:10;8.80;;;2.03;;
61104;SDS011;46987;32.638;-115.438;2023-07-31T10:56:37;7.80;;;1.80;;
61104;SDS011;46987;32.638;-115.438;2023-07-31T10:59:04;7.82;;;1.80;;
61104;SDS011;46987;32.638;-115.438;2023-07-31T11:04:13;10.90;;;2.80;;
61104;SDS011;46987;32.638;-115.438;2023-07-31T11:06:42;9.15;;;2.72;;
61104;SDS011;46987;32.638;-115.438;2023-07-31T11:09:21;8.20;;;2.13;;
61104;SDS011;46987;32.638;-115.438;2023-07-31T11:11:48;7.05;;;2.60;;
61104;SDS011;46987;32.638;-115.438;2023-07-31T11:14:18;11.93;;;3.42;;
61104;SDS011;46987;32.638;-115.438;2023-07-31T11:16:44;12.15;;;7.97;;
61104;SDS011;46987;32.638;-115.438;2023-07-31T11:19:11;9.85;;;5.80;;
61104;SDS011;46987;32.638;-115.438;2023-07-31T11:21:38;8.30;;;2.75;;
61104;SDS011;46987;32.638;-115.438;2023-07-31T11:24:06;6.57;;;1.85;;
61104;SDS011;46987;32.638;-115.438;2023-07-31T11:26:33;7.53;;;2.75;;
61104;SDS011;46987;32.638;-115.438;2023-07-31T11:29:00;7.97;;;2.40;;
61104;SDS011;46987;32.638;-115.438;2023-07-31T11:31:26;4.82;;;1.63;;
61104;SDS011;46987;32.638;-115.438;2023-07-31T11:34:04;4.07;;;1.20;;
61104;SDS011;46987;32.638;-115.438;2023-07-31T11:36:31;3.42;;;1.23;;
61104;SDS011;46987;32.638;-115.438;2023-07-31T11:39:06;3.83;;;1.38;;
61104;SDS011;46987;32.638;-115.438;2023-07-31T11:41:33;3.45;;;1.23;;
61104;SDS011;46987;32.638;-115.438;2023-07-31T11:44:00;5.80;;;1.48;;
61104;SDS011;46987;32.638;-115.438;2023-07-31T11:46:28;5.00;;;2.45;;
61104;SDS011;46987;32.638;-115.438;2023-07-31T11:48:58;4.60;;;2.40;;
61104;SDS011;46987;32.638;-115.438;2023-07-31T11:51:25;6.07;;;2.88;;
61104;SDS011;46987;32.638;-115.438;2023-07-31T11:53:53;4.38;;;1.98;;
61104;SDS011;46987;32.638;-115.438;2023-07-31T11:56:23;3.00;;;1.10;;
61104;SDS011;46987;32.638;-115.438;2023-07-31T11:58:51;3.65;;;1.20;;
61104;SDS011;46987;32.638;-115.438;2023-07-31T12:01:19;4.22;;;1.60;;
61104;SDS011;46987;32.638;-115.438;2023-07-31T12:03:47;5.97;;;1.83;;
61104;SDS011;46987;32.638;-115.438;2023-07-31T12:06:14;8.23;;;2.60;;
61104;SDS011;46987;32.638;-115.438;2023-07-31T12:08:40;11.65;;;2.60;;
61104;SDS011;46987;32.638;-115.438;2023-07-31T12:11:07;17.25;;;2.97;;
61104;SDS011;46987;32.638;-115.438;2023-07-31T12:13:37;12.68;;;3.00;;
61104;SDS011;46987;32.638;-115.438;2023-07-31T12:16:04;14.70;;;3.00;;
61104;SDS011;46987;32.638;-115.438;2023-07-31T12:18:33;19.13;;;4.22;;
61104;SDS011;46987;32.638;-115.438;2023-07-31T12:21:01;17.38;;;3.55;;
61104;SDS011;46987;32.638;-115.438;2023-07-31T12:23:29;18.48;;;3.67;;
61104;SDS011;46987;32.638;-115.438;2023-07-31T12:26:00;25.48;;;4.90;;
61104;SDS011;46987;32.638;-115.438;2023-07-31T12:28:26;34.88;;;5.90;;
61104;SDS011;46987;32.638;-115.438;2023-07-31T12:30:56;37.10;;;6.32;;
61104;SDS011;46987;32.638;-115.438;2023-07-31T12:33:23;35.83;;;7.70;;
61104;SDS011;46987;32.638;-115.438;2023-07-31T12:35:50;42.17;;;6.68;;
61104;SDS011;46987;32.638;-115.438;2023-07-31T12:38:18;37.40;;;6.35;;
61104;SDS011;46987;32.638;-115.438;2023-07-31T12:40:45;27.33;;;5.75;;
61104;SDS011;46987;32.638;-115.438;2023-07-31T12:43:13;28.92;;;4.97;;
61104;SDS011;46987;32.638;-115.438;2023-07-31T12:45:39;29.98;;;5.70;;
61104;SDS011;46987;32.638;-115.438;2023-07-31T12:48:08;32.80;;;5.55;;
61104;SDS011;46987;32.638;-115.438;2023-07-31T12:50:34;26.38;;;5.40;;
61104;SDS011;46987;32.638;-115.438;2023-07-31T12:53:03;24.30;;;5.72;;
61104;SDS011;46987;32.638;-115.438;2023-07-31T12:55:29;22.58;;;5.45;;
61104;SDS011;46987;32.638;-115.438;2023-07-31T12:57:56;16.40;;;3.92;;
61104;SDS011;46987;32.638;-115.438;2023-07-31T13:00:23;23.10;;;4.45;;
61104;SDS011;46987;32.638;-115.438;2023-07-31T13:02:49;26.73;;;4.22;;
61104;SDS011;46987;32.638;-115.438;2023-07-31T13:05:18;21.77;;;4.18;;
61104;SDS011;46987;32.638;-115.438;2023-07-31T13:07:46;21.00;;;4.25;;
61104;SDS011;46987;32.638;-115.438;2023-07-31T13:10:13;17.45;;;3.30;;
61104;SDS011;46987;32.638;-115.438;2023-07-31T13:12:39;17.08;;;2.90;;
61104;SDS011;46987;32.638;-115.438;2023-07-31T13:15:06;19.00;;;3.45;;
61104;SDS011;46987;32.638;-115.438;2023-07-31T13:17:33;22.67;;;3.85;;
61104;SDS011;46987;32.638;-115.438;2023-07-31T13:20:00;22.88;;;3.90;;
61104;SDS011;46987;32.638;-115.438;2023-07-31T13:22:28;15.88;;;4.03;;
61104;SDS011;46987;32.638;-115.438;2023-07-31T13:24:57;9.68;;;3.25;;
61104;SDS011;46987;32.638;-115.438;2023-07-31T13:27:23;16.20;;;3.03;;
61104;SDS011;46987;32.638;-115.438;2023-07-31T13:29:50;13.75;;;2.80;;
61104;SDS011;46987;32.638;-115.438;2023-07-31T13:32:18;10.02;;;2.42;;
61104;SDS011;46987;32.638;-115.438;2023-07-31T13:34:45;11.55;;;1.85;;
61104;SDS011;46987;32.638;-115.438;2023-07-31T13:37:12;7.18;;;1.40;;
61104;SDS011;46987;32.638;-115.438;2023-07-31T13:39:41;10.38;;;2.00;;
61104;SDS011;46987;32.638;-115.438;2023-07-31T13:42:08;9.98;;;2.15;;
61104;SDS011;46987;32.638;-115.438;2023-07-31T13:44:35;8.82;;;2.42;;
61104;SDS011;46987;32.638;-115.438;2023-07-31T13:47:01;10.60;;;2.35;;
61104;SDS011;46987;32.638;-115.438;2023-07-31T13:49:28;13.07;;;1.85;;
61104;SDS011;46987;32.638;-115.438;2023-07-31T13:51:55;10.45;;;1.98;;
61104;SDS011;46987;32.638;-115.438;2023-07-31T13:54:22;7.22;;;1.67;;
61104;SDS011;46987;32.638;-115.438;2023-07-31T13:56:50;6.97;;;2.00;;
61104;SDS011;46987;32.638;-115.438;2023-07-31T13:59:17;11.27;;;1.77;;
61104;SDS011;46987;32.638;-115.438;2023-07-31T14:01:44;10.13;;;1.85;;
61104;SDS011;46987;32.638;-115.438;2023-07-31T14:04:11;9.32;;;1.60;;
61104;SDS011;46987;32.638;-115.438;2023-07-31T14:06:38;8.68;;;1.65;;
61104;SDS011;46987;32.638;-115.438;2023-07-31T14:09:04;10.95;;;1.92;;
61104;SDS011;46987;32.638;-115.438;2023-07-31T14:11:31;7.30;;;1.70;;
61104;SDS011;46987;32.638;-115.438;2023-07-31T14:14:00;11.27;;;2.20;;
61104;SDS011;46987;32.638;-115.438;2023-07-31T14:16:27;7.43;;;2.00;;
61104;SDS011;46987;32.638;-115.438;2023-07-31T14:18:54;8.50;;;1.52;;
61104;SDS011;46987;32.638;-115.438;2023-07-31T14:21:21;8.18;;;1.95;;
61104;SDS011;46987;32.638;-115.438;2023-07-31T14:23:48;6.60;;;1.77;;
61104;SDS011;46987;32.638;-115.438;2023-07-31T14:26:14;10.52;;;1.98;;
61104;SDS011;46987;32.638;-115.438;2023-07-31T14:28:41;11.05;;;2.20;;
61104;SDS011;46987;32.638;-115.438;2023-07-31T14:31:09;6.22;;;2.10;;
61104;SDS011;46987;32.638;-115.438;2023-07-31T14:33:36;7.78;;;2.50;;
61104;SDS011;46987;32.638;-115.438;2023-07-31T14:36:03;9.95;;;1.88;;
61104;SDS011;46987;32.638;-115.438;2023-07-31T14:38:29;7.10;;;2.03;;